createdAt,value
2023-02-13T05:15:44.726Z,99846.05
2023-02-13T05:18:13.178Z,99847.07
2023-02-13T05:20:42.080Z,99843.86
2023-02-13T05:23:23.366Z,99842.48
2023-02-13T05:25:51.571Z,99839.77
2023-02-13T05:28:38.614Z,99837.58
2023-02-13T05:31:07.194Z,99835.38
2023-02-13T05:33:35.763Z,99839.45
2023-02-13T05:36:04.594Z,99838.77
2023-02-13T05:38:35.822Z,99837.08
2023-02-13T05:41:05.109Z,99837.60
2023-02-13T05:43:33.929Z,99834.73
2023-02-13T05:46:05.906Z,99835.77
2023-02-13T05:48:34.361Z,99832.21
2023-02-13T05:51:02.798Z,99829.85
2023-02-13T05:53:31.148Z,99829.17
2023-02-13T05:55:59.384Z,99831.55
2023-02-13T05:58:30.571Z,99832.23
2023-02-13T06:01:01.168Z,99832.06
2023-02-13T06:03:30.689Z,99834.77
2023-02-13T06:06:01.387Z,99835.11
2023-02-13T06:08:30.065Z,99834.59
2023-02-13T06:11:06.380Z,99831.36
2023-02-13T06:13:34.979Z,99835.92
2023-02-13T06:16:12.439Z,99839.48
2023-02-13T06:18:40.816Z,99841.65
2023-02-13T06:21:09.411Z,99840.95
2023-02-13T06:23:38.776Z,99840.63
2023-02-13T06:26:08.103Z,99842.17
2023-02-13T06:28:36.564Z,99840.48
2023-02-13T06:31:05.341Z,99837.77
2023-02-13T06:33:33.936Z,99833.89
2023-02-13T06:36:03.354Z,99833.56
2023-02-13T06:38:34.982Z,99834.58
2023-02-13T06:41:04.404Z,99837.80
2023-02-13T06:43:33.074Z,99839.84
2023-02-13T06:46:05.541Z,99841.02
2023-02-13T06:48:37.922Z,99844.42
2023-02-13T06:51:06.464Z,99844.59
2023-02-13T06:53:34.790Z,99846.11
2023-02-13T06:56:05.245Z,99847.80
2023-02-13T06:58:36.761Z,99850.02
2023-02-13T07:01:05.361Z,99846.61
2023-02-13T07:03:34.131Z,99842.03
2023-02-13T07:06:03.223Z,99835.25
2023-02-13T07:08:32.035Z,99833.89
2023-02-13T07:11:00.484Z,99832.88
2023-02-13T07:13:29.710Z,99836.10
2023-02-13T07:16:01.334Z,99837.63
2023-02-13T07:18:30.220Z,99841.39
2023-02-13T07:20:59.116Z,99843.56
2023-02-13T07:23:27.507Z,99838.98
2023-02-13T07:25:59.448Z,99839.30
2023-02-13T07:28:29.603Z,99825.86
2023-02-13T07:30:58.512Z,99814.33
2023-02-13T07:33:29.231Z,99815.69
2023-02-13T07:36:01.321Z,99812.80
2023-02-13T07:38:34.379Z,99810.56
2023-02-13T07:41:03.365Z,99806.45
2023-02-13T07:43:33.906Z,99803.03
2023-02-13T07:46:02.994Z,99799.13
2023-02-13T07:48:35.997Z,99796.91
2023-02-13T07:51:05.581Z,99792.14
2023-02-13T07:53:33.947Z,99790.76
2023-02-13T07:56:09.914Z,99784.30
2023-02-13T07:58:40.449Z,99778.85
2023-02-13T08:01:09.658Z,99776.64
2023-02-13T08:03:38.097Z,99772.03
2023-02-13T08:06:07.334Z,99766.58
2023-02-13T08:08:35.994Z,99761.48
2023-02-13T08:11:25.272Z,99756.21
2023-02-13T08:13:53.834Z,99751.09
2023-02-13T08:16:26.376Z,99748.52
2023-02-13T08:18:56.112Z,99749.34
2023-02-13T08:21:24.587Z,99748.45
2023-02-13T08:23:55.237Z,99742.63
2023-02-13T08:26:24.058Z,99738.02
2023-02-13T08:28:52.714Z,99736.48
2023-02-13T08:31:21.273Z,99737.12
2023-02-13T08:33:54.286Z,99731.83
2023-02-13T08:36:25.725Z,99737.23
2023-02-13T08:38:54.412Z,99738.88
2023-02-13T08:41:23.424Z,99743.59
2023-02-13T08:43:52.465Z,99743.56
2023-02-13T08:46:21.257Z,99739.79
2023-02-13T08:48:52.001Z,99738.55
2023-02-13T08:51:20.600Z,99741.22
2023-02-13T08:53:52.206Z,99735.23
2023-02-13T08:56:22.182Z,99730.22
2023-02-13T08:58:54.127Z,99724.89
2023-02-13T09:01:27.324Z,99723.46
2023-02-13T09:03:56.072Z,99724.77
2023-02-13T09:06:26.526Z,99722.15
2023-02-13T09:08:58.094Z,99717.32
2023-02-13T09:11:26.549Z,99715.02
2023-02-13T09:13:54.822Z,99712.58
2023-02-13T09:16:23.388Z,99712.51
2023-02-13T09:18:52.038Z,99712.11
2023-02-13T09:21:26.793Z,99714.91
2023-02-13T09:23:55.443Z,99713.67
2023-02-13T09:26:24.032Z,99716.35
2023-02-13T09:28:54.595Z,99721.48
2023-02-13T09:31:29.193Z,99720.48
2023-02-13T09:34:01.133Z,99720.10
2023-02-13T09:36:31.372Z,99721.75
2023-02-13T09:39:01.072Z,99723.38
2023-02-13T09:41:40.780Z,99723.49
2023-02-13T09:44:34.226Z,99722.48
2023-02-13T09:47:08.279Z,99720.09
2023-02-13T09:49:37.950Z,99715.81
2023-02-13T09:52:07.939Z,99712.69
2023-02-13T09:54:37.022Z,99705.67
2023-02-13T09:57:14.386Z,99703.76
2023-02-13T09:59:53.836Z,99704.36
2023-02-13T10:02:45.183Z,99704.23
2023-02-13T10:05:37.852Z,99701.52
2023-02-13T10:08:19.177Z,99700.19
2023-02-13T10:11:04.368Z,99692.77
2023-02-13T10:13:56.303Z,99692.84
2023-02-13T10:16:39.907Z,99687.42
2023-02-13T10:19:22.015Z,99686.42
2023-02-13T10:22:14.751Z,99681.69
2023-02-13T10:24:55.157Z,99681.42
2023-02-13T10:27:25.550Z,99680.81
2023-02-13T10:30:05.246Z,99677.25
2023-02-13T10:32:40.962Z,99674.11
2023-02-13T10:35:24.727Z,99668.40
2023-02-13T10:37:55.421Z,99664.95
2023-02-13T10:40:38.036Z,99666.14
2023-02-13T10:43:10.188Z,99665.29
2023-02-13T10:46:14.883Z,99665.61
2023-02-13T10:48:43.019Z,99664.81
2023-02-13T10:52:08.299Z,99667.25
2023-02-13T11:02:18.343Z,99656.41
2023-02-13T11:04:56.176Z,99658.43
2023-02-13T11:07:25.050Z,99652.73
2023-02-13T11:09:55.893Z,99648.83
2023-02-13T11:12:31.683Z,99647.69
2023-02-13T11:15:12.252Z,99646.13
2023-02-13T11:17:44.556Z,99644.10
2023-02-13T11:20:47.995Z,99640.25
2023-02-13T11:23:28.612Z,99635.01
2023-02-13T11:26:01.774Z,99630.15
2023-02-13T11:28:34.709Z,99626.80
2023-02-13T11:31:33.529Z,99637.65
2023-02-13T11:34:24.270Z,99636.05
2023-02-13T11:36:53.654Z,99631.01
2023-02-13T11:39:22.688Z,99626.36
2023-02-13T11:41:51.014Z,99623.03
2023-02-13T11:44:20.410Z,99621.00
2023-02-13T11:46:50.282Z,99621.67
2023-02-13T11:49:25.755Z,99614.73
2023-02-13T11:51:57.698Z,99611.17
2023-02-13T11:54:33.709Z,99611.11
2023-02-13T11:57:30.031Z,99614.62
2023-02-13T11:59:58.870Z,99611.90
2023-02-13T12:02:29.272Z,99610.73
2023-02-13T12:05:18.114Z,99610.52
2023-02-13T12:07:46.771Z,99607.02
2023-02-13T12:10:15.371Z,99602.73
2023-02-13T12:13:00.128Z,99598.71
2023-02-13T12:15:31.197Z,99598.44
2023-02-13T12:18:09.301Z,99593.15
2023-02-13T12:21:07.400Z,99581.03
2023-02-13T12:24:19.357Z,99570.92
2023-02-13T12:26:53.825Z,99568.08
2023-02-13T12:30:00.341Z,99568.45
2023-02-13T12:32:45.283Z,99569.27
2023-02-13T12:35:43.527Z,99573.28
2023-02-13T12:38:50.491Z,99566.43
2023-02-13T12:41:22.858Z,99565.35
2023-02-13T12:44:04.101Z,99563.14
2023-02-13T12:46:45.249Z,99567.78
2023-02-13T12:49:42.438Z,99559.17
2023-02-13T12:52:36.004Z,99560.18
2023-02-13T12:55:11.015Z,99557.91
2023-02-13T12:58:01.472Z,99556.41
2023-02-13T13:00:39.554Z,99552.85
2023-02-13T13:04:02.504Z,99551.11
2023-02-13T13:06:52.590Z,99546.29
2023-02-13T13:09:35.176Z,99545.41
2023-02-13T13:12:24.967Z,99545.84
2023-02-13T13:15:51.610Z,99544.46
2023-02-13T13:18:19.977Z,99540.02
2023-02-13T13:20:57.065Z,99536.25
2023-02-13T13:24:15.082Z,99530.77
2023-02-13T13:26:49.840Z,99529.69
2023-02-13T13:29:26.581Z,99526.05
2023-02-13T13:32:06.964Z,99523.79
2023-02-13T13:34:36.024Z,99513.63
2023-02-13T13:37:27.725Z,99515.21
2023-02-13T13:40:24.837Z,99514.33
2023-02-13T13:42:57.135Z,99507.77
2023-02-13T13:45:51.553Z,99502.54
2023-02-13T13:48:20.222Z,99503.23
2023-02-13T13:50:48.511Z,99502.36
2023-02-13T13:53:20.988Z,99500.09
2023-02-13T13:55:52.880Z,99503.10
2023-02-13T13:58:27.406Z,99499.22
2023-02-13T14:01:36.192Z,99499.13
2023-02-13T14:04:23.654Z,99503.64
2023-02-13T14:06:51.878Z,99497.55
2023-02-13T14:09:40.638Z,99496.17
2023-02-13T14:12:36.755Z,99503.67
2023-02-13T14:15:38.630Z,99505.42
2023-02-13T14:18:12.128Z,99506.40
2023-02-13T14:20:42.599Z,99503.06
2023-02-13T14:23:26.654Z,99494.94
2023-02-13T14:26:16.846Z,99489.27
2023-02-13T14:28:55.832Z,99481.02
2023-02-13T14:31:30.875Z,99477.64
2023-02-13T14:34:06.368Z,99478.42
2023-02-13T14:36:43.304Z,99485.02
2023-02-13T14:39:25.835Z,99486.97
2023-02-13T14:41:54.326Z,99480.30
2023-02-13T14:44:26.772Z,99481.23
2023-02-13T14:46:54.917Z,99479.27
2023-02-13T14:49:28.727Z,99476.71
2023-02-13T14:51:59.260Z,99473.91
2023-02-13T14:54:50.141Z,99469.71
2023-02-13T14:57:44.788Z,99464.95
2023-02-13T15:00:18.906Z,99470.45
2023-02-13T15:02:49.931Z,99465.48
2023-02-13T15:05:35.806Z,99468.75
2023-02-13T22:13:57.586Z,99209.41
2023-02-13T22:16:26.594Z,99202.30
2023-02-13T22:18:55.125Z,99207.90
2023-02-13T22:21:25.042Z,99205.35
2023-02-13T22:23:57.260Z,99200.41
2023-02-13T22:26:31.255Z,99205.52
2023-02-13T22:29:01.233Z,99195.04
2023-02-13T22:31:30.179Z,99190.16
2023-02-13T22:34:04.281Z,99181.44
2023-02-13T22:36:34.375Z,99178.37
2023-02-13T22:39:03.458Z,99168.79
2023-02-13T22:41:32.244Z,99161.68
2023-02-13T22:44:00.549Z,99160.52
2023-02-13T22:46:30.948Z,99154.95
2023-02-13T22:49:02.207Z,99146.65
2023-02-13T22:51:33.364Z,99138.35
2023-02-13T22:54:02.515Z,99136.19
2023-02-13T22:56:33.520Z,99129.70
2023-02-13T22:59:02.248Z,99128.41
2023-02-13T23:01:31.553Z,99121.44
2023-02-13T23:04:00.271Z,99126.30
2023-02-13T23:06:29.844Z,99132.92
2023-02-13T23:08:58.045Z,99132.67
2023-02-13T23:11:46.133Z,99128.82
2023-02-13T23:14:14.856Z,99128.92
2023-02-13T23:17:02.125Z,99126.20
2023-02-13T23:19:30.732Z,99117.74
2023-02-13T23:21:59.549Z,99117.11
2023-02-13T23:24:29.254Z,99120.31
2023-02-13T23:26:58.318Z,99120.02
2023-02-13T23:29:29.381Z,99113.45
2023-02-13T23:31:57.570Z,99116.95
2023-02-13T23:34:25.814Z,99118.34
2023-02-13T23:36:54.248Z,99124.88
2023-02-13T23:39:24.378Z,99121.95
2023-02-13T23:41:52.510Z,99118.81
2023-02-13T23:44:20.658Z,99121.04
2023-02-13T23:46:48.779Z,99121.23
2023-02-13T23:49:17.013Z,99118.77
2023-02-13T23:51:45.675Z,99116.34
2023-02-13T23:54:22.955Z,99110.63
2023-02-13T23:56:52.046Z,99110.35
2023-02-13T23:59:23.438Z,99108.05
